createdAt,value
2018-10-03T00:02:14.452Z,63.40
2018-10-03T00:04:42.975Z,63.20
2018-10-03T00:07:11.659Z,63.00
2018-10-03T00:09:40.215Z,62.90
2018-10-03T00:12:08.704Z,63.10
2018-10-03T00:14:37.266Z,63.00
2018-10-03T00:17:05.911Z,63.00
2018-10-03T00:19:34.434Z,62.80
2018-10-03T00:22:02.979Z,62.70
2018-10-03T00:24:31.508Z,62.70
2018-10-03T00:27:00.167Z,62.60
2018-10-03T00:29:28.746Z,62.80
2018-10-03T00:31:57.141Z,62.70
2018-10-03T00:34:25.519Z,62.70
2018-10-03T00:36:54.010Z,62.60
2018-10-03T00:39:22.591Z,62.70
2018-10-03T00:41:51.086Z,62.90
2018-10-03T00:44:19.559Z,62.90
2018-10-03T00:46:47.919Z,62.90
2018-10-03T00:49:16.502Z,63.00
2018-10-03T00:51:45.102Z,63.40
2018-10-03T00:54:13.521Z,64.20
2018-10-03T00:56:42.106Z,65.30
2018-10-03T00:59:10.692Z,65.10
2018-10-03T01:01:39.117Z,65.20
2018-10-03T01:04:07.653Z,65.20
2018-10-03T01:06:36.107Z,65.40
2018-10-03T01:09:05.507Z,65.30
2018-10-03T01:11:33.970Z,65.30
2018-10-03T01:14:02.442Z,65.20
2018-10-03T01:16:31.087Z,65.10
2018-10-03T01:18:59.540Z,65.20
2018-10-03T01:21:28.038Z,65.10
2018-10-03T01:23:56.450Z,65.10
2018-10-03T01:26:24.849Z,65.10
2018-10-03T01:28:53.447Z,65.10
2018-10-03T01:31:21.980Z,65.00
2018-10-03T01:33:50.407Z,65.00
2018-10-03T01:36:18.933Z,65.00
2018-10-03T01:38:47.449Z,64.90
2018-10-03T01:41:16.035Z,64.90
2018-10-03T01:43:44.651Z,64.90
2018-10-03T01:46:15.270Z,65.00
2018-10-03T01:48:44.044Z,64.90
2018-10-03T01:51:12.523Z,64.90
2018-10-03T01:53:41.035Z,65.10
2018-10-03T01:56:09.586Z,65.00
2018-10-03T01:58:37.993Z,65.10
2018-10-03T02:01:06.424Z,65.00
2018-10-03T02:03:34.834Z,65.10
2018-10-03T02:06:03.342Z,65.20
2018-10-03T02:08:31.756Z,65.30
2018-10-03T02:11:00.110Z,65.40
2018-10-03T02:13:28.477Z,66.40
2018-10-03T02:15:57.040Z,65.70
2018-10-03T02:18:25.414Z,65.70
2018-10-03T02:20:53.945Z,66.10
2018-10-03T02:23:22.447Z,66.10
2018-10-03T02:25:50.866Z,66.50
2018-10-03T02:28:19.238Z,66.50
2018-10-03T02:30:47.653Z,66.50
2018-10-03T02:33:16.047Z,66.40
2018-10-03T02:35:44.435Z,66.40
2018-10-03T02:38:14.029Z,66.50
2018-10-03T02:40:42.491Z,66.40
2018-10-03T02:43:10.948Z,66.40
2018-10-03T02:45:39.393Z,66.40
2018-10-03T02:48:07.883Z,66.30
2018-10-03T02:50:36.436Z,66.30
2018-10-03T02:53:04.848Z,66.20
2018-10-03T02:55:33.321Z,66.30
2018-10-03T02:58:01.925Z,66.30
2018-10-03T03:00:30.193Z,66.10
2018-10-03T03:02:58.602Z,66.20
2018-10-03T03:05:27.043Z,66.20
2018-10-03T03:07:55.502Z,66.10
2018-10-03T03:10:24.091Z,66.10
2018-10-03T03:12:52.507Z,66.30
2018-10-03T03:15:21.147Z,66.30
2018-10-03T03:17:49.670Z,66.40
2018-10-03T03:20:18.231Z,66.60
2018-10-03T03:22:46.823Z,66.80
2018-10-03T03:25:15.244Z,66.80
2018-10-03T03:27:43.662Z,67.00
2018-10-03T03:30:12.157Z,67.10
2018-10-03T03:32:41.588Z,67.40
2018-10-03T03:35:09.982Z,67.60
2018-10-03T03:37:38.416Z,67.90
2018-10-03T03:40:07.114Z,68.20
2018-10-03T03:42:35.568Z,68.30
2018-10-03T03:45:04.049Z,68.40
2018-10-03T03:47:32.461Z,68.70
2018-10-03T03:50:00.921Z,68.90
2018-10-03T03:52:29.330Z,69.70
2018-10-03T03:54:57.768Z,69.20
2018-10-03T03:57:26.153Z,69.40
2018-10-03T03:59:54.562Z,69.50
2018-10-03T04:02:23.066Z,69.60
2018-10-03T04:04:51.568Z,69.80
2018-10-03T04:07:20.184Z,69.70
2018-10-03T04:09:48.733Z,69.80
2018-10-03T04:12:17.314Z,69.70
2018-10-03T04:14:45.699Z,70.10
2018-10-03T04:17:14.094Z,70.90
2018-10-03T04:19:42.547Z,70.00
2018-10-03T04:22:11.064Z,70.00
2018-10-03T04:24:39.538Z,70.00
2018-10-03T04:27:08.019Z,69.80
2018-10-03T04:29:36.510Z,69.90
2018-10-03T04:32:05.032Z,69.70
2018-10-03T04:34:33.482Z,69.80
2018-10-03T04:37:02.042Z,69.90
2018-10-03T04:39:30.583Z,69.70
2018-10-03T04:41:59.034Z,69.60
2018-10-03T04:44:27.538Z,69.70
2018-10-03T04:46:56.038Z,69.70
2018-10-03T04:49:24.486Z,69.30
2018-10-03T04:51:52.919Z,69.50
2018-10-03T04:54:21.435Z,69.60
2018-10-03T04:56:49.885Z,69.60
2018-10-03T04:59:18.298Z,69.60
2018-10-03T05:01:46.877Z,69.60
2018-10-03T05:04:15.250Z,69.70
2018-10-03T05:06:43.776Z,69.50
2018-10-03T05:09:12.286Z,69.80
2018-10-03T05:11:40.645Z,69.90
2018-10-03T05:14:09.408Z,70.00
2018-10-03T05:16:37.926Z,70.10
2018-10-03T05:19:06.455Z,71.00
2018-10-03T05:21:34.876Z,70.30
2018-10-03T05:24:03.418Z,70.10
2018-10-03T05:26:31.923Z,70.20
2018-10-03T05:29:00.302Z,70.50
2018-10-03T05:31:28.717Z,70.80
2018-10-03T05:33:57.333Z,71.70
2018-10-03T05:36:25.719Z,70.70
2018-10-03T05:38:54.260Z,70.90
2018-10-03T05:41:22.820Z,71.20
2018-10-03T05:43:51.336Z,71.30
2018-10-03T05:46:19.765Z,71.30
2018-10-03T05:48:48.417Z,71.60
2018-10-03T05:51:16.801Z,71.70
2018-10-03T05:53:45.195Z,71.60
2018-10-03T05:56:13.626Z,71.70
2018-10-03T05:58:42.102Z,71.80
2018-10-03T06:01:10.537Z,71.80
2018-10-03T06:03:39.188Z,71.90
2018-10-03T06:06:07.770Z,71.90
2018-10-03T06:08:36.192Z,71.90
2018-10-03T06:11:04.820Z,71.80
2018-10-03T06:13:33.403Z,72.00
2018-10-03T06:16:02.003Z,72.00
2018-10-03T06:18:30.445Z,72.00
2018-10-03T06:20:58.899Z,72.10
2018-10-03T06:23:27.321Z,72.00
2018-10-03T06:25:55.786Z,72.10
2018-10-03T06:28:24.226Z,72.20
2018-10-03T06:30:52.721Z,72.20
2018-10-03T06:33:21.226Z,72.20
2018-10-03T06:35:49.793Z,72.10
2018-10-03T06:38:18.410Z,72.20
2018-10-03T06:40:46.876Z,72.20
2018-10-03T06:43:15.450Z,72.20
2018-10-03T06:45:43.890Z,72.30
2018-10-03T06:48:12.409Z,72.30
2018-10-03T06:50:40.786Z,72.40
2018-10-03T06:53:09.199Z,72.40
2018-10-03T06:55:37.633Z,72.70
2018-10-03T06:58:06.059Z,72.70
2018-10-03T07:00:34.515Z,73.00
2018-10-03T07:03:03.214Z,73.90
2018-10-03T07:05:33.178Z,74.30
2018-10-03T07:08:01.963Z,74.60
2018-10-03T07:10:30.331Z,74.90
2018-10-03T07:12:58.879Z,75.60
2018-10-03T07:15:27.408Z,75.90
2018-10-03T07:17:55.888Z,76.00
2018-10-03T07:20:24.281Z,76.30
2018-10-03T07:22:52.678Z,77.10
2018-10-03T07:25:21.236Z,77.00
2018-10-03T07:27:49.650Z,77.80
2018-10-03T07:30:18.143Z,78.10
2018-10-03T07:32:46.787Z,78.50
2018-10-03T07:35:15.255Z,79.00
2018-10-03T07:37:43.646Z,79.40
2018-10-03T07:40:12.119Z,80.10
2018-10-03T07:42:40.796Z,80.30
2018-10-03T07:45:09.166Z,81.00
2018-10-03T07:47:37.555Z,81.00
2018-10-03T07:50:06.684Z,82.10
2018-10-03T07:52:35.102Z,81.70
2018-10-03T07:55:03.647Z,81.90
2018-10-03T07:57:32.118Z,81.90
2018-10-03T08:00:00.725Z,82.10
2018-10-03T08:02:29.169Z,82.50
2018-10-03T08:04:58.104Z,82.70
2018-10-03T08:07:26.574Z,82.90
2018-10-03T08:09:55.303Z,83.20
2018-10-03T08:12:23.726Z,83.00
2018-10-03T08:14:52.437Z,83.70
2018-10-03T08:17:21.160Z,83.50
2018-10-03T08:19:49.594Z,83.50
2018-10-03T08:22:18.253Z,83.60
2018-10-03T08:24:46.778Z,83.40
2018-10-03T08:27:15.176Z,83.60
2018-10-03T08:29:43.613Z,83.30
2018-10-03T08:32:11.996Z,83.30
2018-10-03T08:34:40.403Z,83.40
2018-10-03T08:37:08.809Z,83.30
2018-10-03T08:39:37.350Z,83.40
2018-10-03T08:42:05.848Z,83.60
2018-10-03T08:44:34.396Z,83.90
2018-10-03T08:47:02.906Z,83.60
2018-10-03T08:49:31.320Z,84.40
2018-10-03T08:51:59.817Z,83.70
2018-10-03T08:54:28.261Z,83.80
2018-10-03T08:56:56.883Z,84.20
2018-10-03T08:59:25.346Z,84.50
2018-10-03T09:01:53.788Z,84.00
2018-10-03T09:04:22.196Z,83.80
2018-10-03T09:06:50.649Z,83.80
2018-10-03T09:09:19.189Z,84.20
2018-10-03T09:11:47.752Z,84.20
2018-10-03T09:14:16.179Z,84.00
2018-10-03T09:16:44.549Z,84.10
2018-10-03T09:19:13.092Z,83.40
2018-10-03T09:21:41.681Z,83.50
2018-10-03T09:24:10.195Z,83.20
2018-10-03T09:26:38.606Z,82.80
2018-10-03T09:29:07.082Z,82.60
2018-10-03T09:31:35.567Z,82.40
2018-10-03T09:34:04.024Z,81.50
2018-10-03T09:36:32.576Z,81.00
2018-10-03T09:39:01.185Z,81.80
2018-10-03T09:41:29.759Z,79.80
2018-10-03T09:43:58.166Z,79.10
2018-10-03T09:46:26.868Z,77.80
2018-10-03T09:48:55.357Z,77.50
2018-10-03T09:51:23.860Z,77.10
2018-10-03T09:53:52.414Z,77.20
2018-10-03T09:56:20.876Z,76.60
2018-10-03T09:58:49.382Z,75.90
2018-10-03T10:01:23.162Z,74.10
2018-10-03T10:03:51.688Z,74.10
2018-10-03T10:06:20.133Z,73.40
2018-10-03T10:08:48.576Z,73.30
2018-10-03T10:11:17.078Z,72.90
2018-10-03T10:13:46.322Z,72.90
2018-10-03T10:16:15.579Z,72.70
2018-10-03T10:18:45.124Z,71.70
2018-10-03T10:21:14.872Z,70.80
2018-10-03T10:23:43.860Z,71.20
2018-10-03T10:26:12.487Z,70.90
2018-10-03T10:28:42.097Z,71.10
2018-10-03T10:31:11.609Z,70.70
2018-10-03T10:33:40.131Z,70.20
2018-10-03T10:36:09.604Z,70.20
2018-10-03T10:38:38.426Z,69.60
2018-10-03T10:41:07.721Z,70.00
2018-10-03T10:43:37.243Z,69.30
2018-10-03T10:46:06.032Z,67.40
2018-10-03T10:48:34.726Z,66.30
2018-10-03T10:51:03.375Z,65.50
2018-10-03T10:53:32.045Z,65.80
2018-10-03T10:55:59.837Z,64.70
2018-10-03T10:58:28.464Z,63.10
2018-10-03T11:00:56.914Z,63.50
2018-10-03T11:03:25.437Z,63.40
2018-10-03T11:05:53.870Z,63.30
2018-10-03T11:08:22.479Z,64.20
2018-10-03T11:10:50.939Z,63.60
2018-10-03T11:13:19.548Z,63.50
2018-10-03T11:15:49.514Z,63.50
2018-10-03T11:18:19.369Z,62.50
2018-10-03T11:20:49.228Z,61.20
2018-10-03T11:23:18.992Z,60.00
2018-10-03T11:25:48.414Z,60.20
2018-10-03T11:28:18.075Z,60.60
2018-10-03T11:30:47.973Z,60.70
2018-10-03T11:33:17.967Z,60.60
2018-10-03T11:35:47.828Z,60.10
2018-10-03T11:38:17.447Z,59.00
2018-10-03T11:40:47.314Z,58.30
2018-10-03T11:43:17.169Z,58.60
2018-10-03T11:45:45.930Z,58.60
2018-10-03T11:48:15.744Z,57.80
2018-10-03T11:50:44.353Z,57.50
2018-10-03T11:53:12.923Z,58.00
2018-10-03T11:55:41.678Z,58.60
2018-10-03T11:58:10.374Z,59.30
2018-10-03T12:00:39.035Z,59.60
2018-10-03T12:03:08.887Z,59.50
2018-10-03T12:05:38.663Z,59.70
2018-10-03T12:08:08.626Z,60.10
2018-10-03T12:10:38.359Z,59.70
2018-10-03T12:13:06.975Z,59.40
2018-10-03T12:15:35.473Z,59.40
2018-10-03T12:18:03.986Z,59.60
2018-10-03T12:20:32.542Z,59.90
2018-10-03T12:23:01.058Z,59.80
2018-10-03T12:25:29.619Z,59.70
2018-10-03T12:27:58.111Z,59.30
2018-10-03T12:30:26.611Z,59.20
2018-10-03T12:32:55.106Z,59.20
2018-10-03T12:35:29.060Z,59.70
2018-10-03T12:37:57.574Z,59.60
2018-10-03T12:40:25.993Z,59.80
2018-10-03T12:42:54.579Z,59.90
2018-10-03T12:45:23.115Z,59.80
2018-10-03T12:47:51.598Z,60.10
2018-10-03T12:50:20.031Z,60.30
2018-10-03T12:52:48.737Z,60.30
2018-10-03T12:55:17.512Z,60.80
2018-10-03T12:57:46.751Z,61.10
2018-10-03T13:00:15.458Z,61.90
2018-10-03T13:02:44.050Z,61.60
2018-10-03T13:05:12.646Z,62.00
2018-10-03T13:07:41.079Z,62.40
2018-10-03T13:10:09.647Z,62.70
2018-10-03T13:12:38.138Z,62.90
2018-10-03T13:15:06.916Z,62.70
2018-10-03T13:17:35.406Z,62.80
2018-10-03T13:20:03.856Z,63.00
2018-10-03T13:22:32.649Z,63.00
2018-10-03T13:25:01.157Z,63.10
2018-10-03T13:27:29.644Z,63.30
2018-10-03T13:29:58.169Z,63.30
2018-10-03T13:32:26.715Z,63.60
2018-10-03T13:34:55.251Z,63.80
2018-10-03T13:37:23.668Z,64.70
2018-10-03T13:39:52.208Z,64.20
2018-10-03T13:42:20.801Z,64.30
2018-10-03T13:44:49.199Z,64.20
2018-10-03T13:47:17.594Z,64.10
2018-10-03T13:49:46.099Z,64.20
2018-10-03T13:52:14.587Z,64.20
2018-10-03T13:54:43.234Z,64.30
2018-10-03T13:57:11.703Z,64.20
2018-10-03T13:59:40.223Z,64.20
2018-10-03T14:02:08.650Z,64.00
2018-10-03T14:04:37.143Z,63.60
2018-10-03T14:07:05.591Z,63.30
2018-10-03T14:09:34.028Z,63.50
2018-10-03T14:12:02.608Z,63.40
2018-10-03T14:14:31.096Z,63.40
2018-10-03T14:16:59.544Z,63.30
2018-10-03T14:19:28.131Z,63.00
2018-10-03T14:21:56.820Z,62.70
2018-10-03T14:24:25.428Z,64.40
2018-10-03T14:26:53.928Z,62.90
2018-10-03T14:29:22.429Z,62.90
2018-10-03T14:31:50.939Z,62.30
2018-10-03T14:34:19.403Z,62.00
2018-10-03T14:36:47.909Z,62.60
2018-10-03T14:39:16.327Z,61.30
2018-10-03T14:41:44.789Z,61.50
2018-10-03T14:44:13.348Z,61.20
2018-10-03T14:46:41.854Z,61.40
2018-10-03T14:49:10.383Z,61.20
2018-10-03T14:51:39.039Z,61.40
2018-10-03T14:54:07.531Z,61.30
2018-10-03T14:56:36.811Z,61.20
2018-10-03T14:59:05.297Z,61.30
2018-10-03T15:01:33.775Z,61.20
2018-10-03T15:04:02.209Z,61.40
2018-10-03T15:06:30.773Z,61.40
2018-10-03T15:08:59.254Z,61.50
2018-10-03T15:11:27.821Z,61.40
2018-10-03T15:13:56.306Z,61.50
2018-10-03T15:16:26.023Z,61.60
2018-10-03T15:18:55.754Z,61.70
2018-10-03T15:21:25.506Z,61.50
2018-10-03T15:23:54.179Z,61.40
2018-10-03T15:26:22.806Z,61.40
2018-10-03T15:28:51.331Z,61.70
2018-10-03T15:31:19.774Z,61.80
2018-10-03T15:33:48.174Z,61.70
2018-10-03T15:36:16.640Z,61.90
2018-10-03T15:38:45.123Z,62.00
2018-10-03T15:41:14.781Z,62.00
2018-10-03T15:43:44.463Z,62.10
2018-10-03T15:46:14.188Z,62.30
2018-10-03T15:48:43.960Z,62.30
2018-10-03T15:51:13.675Z,62.40
2018-10-03T15:53:42.043Z,62.50
2018-10-03T15:56:11.932Z,62.70
2018-10-03T15:58:41.608Z,62.90
2018-10-03T16:01:11.540Z,63.70
2018-10-03T16:03:41.260Z,63.00
2018-10-03T16:06:11.214Z,62.90
2018-10-03T16:08:40.956Z,63.00
2018-10-03T16:11:10.736Z,63.00
2018-10-03T16:13:39.198Z,63.00
2018-10-03T16:16:07.799Z,63.20
2018-10-03T16:18:36.255Z,63.40
2018-10-03T16:21:06.344Z,63.60
2018-10-03T16:23:36.060Z,63.80
2018-10-03T16:26:04.582Z,64.80
2018-10-03T16:28:32.981Z,64.10
2018-10-03T16:31:02.017Z,64.10
2018-10-03T16:33:31.082Z,64.20
2018-10-03T16:36:00.377Z,64.50
2018-10-03T16:38:30.502Z,64.80
2018-10-03T16:40:59.879Z,64.80
2018-10-03T16:43:28.317Z,65.60
2018-10-03T16:45:56.928Z,65.10
2018-10-03T16:48:25.553Z,65.20
2018-10-03T16:50:54.127Z,65.20
2018-10-03T16:53:22.798Z,65.40
2018-10-03T16:55:51.243Z,65.70
2018-10-03T16:58:19.976Z,65.70
2018-10-03T17:00:48.864Z,65.90
2018-10-03T17:03:17.268Z,66.00
2018-10-03T17:05:45.735Z,65.90
2018-10-03T17:08:14.646Z,66.00
2018-10-03T17:10:43.271Z,66.10
2018-10-03T17:13:11.872Z,66.20
2018-10-03T17:15:40.485Z,66.40
2018-10-03T17:18:09.023Z,66.40
2018-10-03T17:20:37.647Z,66.90
2018-10-03T17:23:06.270Z,68.00
2018-10-03T17:25:34.771Z,67.40
2018-10-03T17:28:03.210Z,67.80
2018-10-03T17:30:32.001Z,67.90
2018-10-03T17:33:00.472Z,68.30
2018-10-03T17:35:28.948Z,68.60
2018-10-03T17:37:57.405Z,68.50
2018-10-03T17:40:25.942Z,68.90
2018-10-03T17:42:54.517Z,69.10
2018-10-03T17:45:23.058Z,69.30
2018-10-03T17:47:51.533Z,69.60
2018-10-03T17:50:19.948Z,69.90
2018-10-03T17:52:48.434Z,70.00
2018-10-03T17:55:16.959Z,70.20
2018-10-03T17:57:45.379Z,70.10
2018-10-03T18:00:14.035Z,70.30
2018-10-03T18:02:42.537Z,70.40
2018-10-03T18:05:11.026Z,70.30
2018-10-03T18:07:39.492Z,70.30
2018-10-03T18:10:08.120Z,70.40
2018-10-03T18:12:36.665Z,70.40
2018-10-03T18:15:05.276Z,70.70
2018-10-03T18:17:33.742Z,70.90
2018-10-03T18:20:02.336Z,71.10
2018-10-03T18:22:30.790Z,71.40
2018-10-03T18:24:59.228Z,71.20
2018-10-03T18:27:27.719Z,71.10
2018-10-03T18:29:56.243Z,71.20
2018-10-03T18:32:24.831Z,71.10
2018-10-03T18:34:53.448Z,71.10
2018-10-03T18:37:22.137Z,71.00
2018-10-03T18:39:51.119Z,71.10
2018-10-03T18:42:20.208Z,71.30
2018-10-03T18:44:48.994Z,71.60
2018-10-03T18:47:17.976Z,71.80
2018-10-03T18:49:47.079Z,71.90
2018-10-03T18:52:16.016Z,72.90
2018-10-03T18:54:44.960Z,72.30
2018-10-03T18:57:13.762Z,72.50
2018-10-03T18:59:42.637Z,72.70
2018-10-03T19:02:11.426Z,73.10
2018-10-03T19:04:40.425Z,73.30
2018-10-03T19:07:09.489Z,73.20
2018-10-03T19:09:38.724Z,73.40
2018-10-03T19:12:07.786Z,73.30
2018-10-03T19:14:36.751Z,73.50
2018-10-03T19:17:05.692Z,73.60
2018-10-03T19:19:34.956Z,73.70
2018-10-03T19:22:03.787Z,73.80
2018-10-03T19:24:32.947Z,74.50
2018-10-03T19:27:01.858Z,73.90
2018-10-03T19:29:30.649Z,74.30
2018-10-03T19:31:59.536Z,75.10
2018-10-03T19:34:28.835Z,74.30
2018-10-03T19:36:57.938Z,74.30
2018-10-03T19:39:26.924Z,74.30
2018-10-03T19:41:55.952Z,74.50
2018-10-03T19:44:25.011Z,74.60
2018-10-03T19:46:53.653Z,74.50
2018-10-03T19:49:22.315Z,74.90
2018-10-03T19:51:50.923Z,75.00
2018-10-03T19:54:19.439Z,75.70
2018-10-03T19:56:47.877Z,75.00
2018-10-03T19:59:16.487Z,75.00
2018-10-03T20:01:45.016Z,75.20
2018-10-03T20:04:13.664Z,75.20
2018-10-03T20:06:42.279Z,74.90
2018-10-03T20:09:10.867Z,74.80
2018-10-03T20:11:39.353Z,75.10
2018-10-03T20:14:08.394Z,75.00
2018-10-03T20:16:36.944Z,75.10
2018-10-03T20:19:05.960Z,75.20
2018-10-03T20:21:34.518Z,75.00
2018-10-03T20:24:03.277Z,75.10
2018-10-03T20:26:31.840Z,75.20
2018-10-03T20:29:00.456Z,75.20
2018-10-03T20:31:29.246Z,75.20
2018-10-03T20:33:57.863Z,75.10
2018-10-03T20:36:26.418Z,75.60
2018-10-03T20:38:54.856Z,76.00
2018-10-03T20:41:23.344Z,76.80
2018-10-03T20:43:51.902Z,77.30
2018-10-03T20:46:20.507Z,77.10
2018-10-03T20:48:48.944Z,77.30
2018-10-03T20:51:17.475Z,77.20
2018-10-03T20:53:45.994Z,77.00
2018-10-03T20:56:14.532Z,76.60
2018-10-03T20:58:43.014Z,76.70
2018-10-03T21:01:11.588Z,76.70
2018-10-03T21:03:39.952Z,76.60
2018-10-03T21:06:09.343Z,77.50
2018-10-03T21:08:37.986Z,77.60
2018-10-03T21:11:06.472Z,77.40
2018-10-03T21:13:34.986Z,77.00
2018-10-03T21:16:03.464Z,76.70
2018-10-03T21:18:31.994Z,76.40
2018-10-03T21:21:00.555Z,76.30
2018-10-03T21:23:28.978Z,76.40
2018-10-03T21:25:57.611Z,76.40
2018-10-03T21:28:26.094Z,77.00
2018-10-03T21:30:54.584Z,75.90
2018-10-03T21:33:23.091Z,76.50
2018-10-03T21:35:51.553Z,75.80
2018-10-03T21:38:20.086Z,75.80
2018-10-03T21:40:48.623Z,75.90
2018-10-03T21:43:17.193Z,75.70
2018-10-03T21:45:45.696Z,75.80
2018-10-03T21:48:14.222Z,75.90
2018-10-03T21:50:42.827Z,75.80
2018-10-03T21:53:11.262Z,75.50
2018-10-03T21:55:39.770Z,75.40
2018-10-03T21:58:08.178Z,75.50
2018-10-03T22:00:42.168Z,75.60
2018-10-03T22:03:10.731Z,75.70
2018-10-03T22:05:39.136Z,75.80
2018-10-03T22:08:07.555Z,75.60
2018-10-03T22:10:36.194Z,75.90
2018-10-03T22:13:04.583Z,76.00
2018-10-03T22:15:33.050Z,76.50
2018-10-03T22:18:01.624Z,76.50
2018-10-03T22:20:30.046Z,76.50
2018-10-03T22:22:58.643Z,76.70
2018-10-03T22:25:27.056Z,76.80
2018-10-03T22:27:55.694Z,76.80
2018-10-03T22:30:24.177Z,76.70
2018-10-03T22:32:52.646Z,77.00
2018-10-03T22:35:21.096Z,76.90
2018-10-03T22:37:49.511Z,77.00
2018-10-03T22:40:17.965Z,77.00
2018-10-03T22:42:46.467Z,77.10
2018-10-03T22:45:14.859Z,77.40
2018-10-03T22:47:43.330Z,77.10
2018-10-03T22:50:12.375Z,76.90
2018-10-03T22:52:40.868Z,76.80
2018-10-03T22:55:09.291Z,76.60
2018-10-03T22:57:37.779Z,76.80
2018-10-03T23:00:07.697Z,76.50
2018-10-03T23:02:36.165Z,77.60
2018-10-03T23:05:04.645Z,77.50
2018-10-03T23:07:33.150Z,77.00
2018-10-03T23:10:01.683Z,76.70
2018-10-03T23:12:30.080Z,76.70
2018-10-03T23:14:58.445Z,76.70
2018-10-03T23:17:26.901Z,77.00
2018-10-03T23:19:55.354Z,77.70
2018-10-03T23:22:23.770Z,77.30
2018-10-03T23:24:52.215Z,77.20
2018-10-03T23:27:20.715Z,76.80
2018-10-03T23:29:49.132Z,76.30
2018-10-03T23:32:17.615Z,76.10
2018-10-03T23:34:46.226Z,76.40
2018-10-03T23:37:14.610Z,76.70
2018-10-03T23:39:42.999Z,76.20
2018-10-03T23:42:11.435Z,76.20
2018-10-03T23:44:39.804Z,76.20
2018-10-03T23:47:08.202Z,76.70
2018-10-03T23:49:36.807Z,76.70
2018-10-03T23:52:05.260Z,76.20
2018-10-03T23:54:33.702Z,76.00
2018-10-03T23:57:02.149Z,75.90
2018-10-03T23:59:30.526Z,75.90
